sensor_id;sensor_type;location;lat;lon;timestamp;P1;durP1;ratioP1;P2;durP2;ratioP2
23258;SDS011;11798;51.528;7.240;2023-04-06T01:26:03;14.73;;;10.07;;
23258;SDS011;11798;51.528;7.240;2023-04-06T01:28:29;15.07;;;10.80;;
23258;SDS011;11798;51.528;7.240;2023-04-06T01:30:55;17.97;;;11.40;;
23258;SDS011;11798;51.528;7.240;2023-04-06T01:33:20;18.43;;;10.20;;
23258;SDS011;11798;51.528;7.240;2023-04-06T01:35:46;13.27;;;9.63;;
23258;SDS011;11798;51.528;7.240;2023-04-06T01:38:11;14.53;;;10.07;;
23258;SDS011;11798;51.528;7.240;2023-04-06T01:40:37;18.03;;;10.30;;
23258;SDS011;11798;51.528;7.240;2023-04-06T01:43:03;15.30;;;9.83;;
23258;SDS011;11798;51.528;7.240;2023-04-06T01:45:28;16.50;;;10.60;;
23258;SDS011;11798;51.528;7.240;2023-04-06T01:47:54;15.03;;;9.77;;
23258;SDS011;11798;51.528;7.240;2023-04-06T01:50:19;19.00;;;10.70;;
23258;SDS011;11798;51.528;7.240;2023-04-06T01:52:45;14.43;;;10.00;;
23258;SDS011;11798;51.528;7.240;2023-04-06T01:55:11;17.10;;;10.40;;
23258;SDS011;11798;51.528;7.240;2023-04-06T01:57:37;14.13;;;10.27;;
23258;SDS011;11798;51.528;7.240;2023-04-06T02:00:02;15.87;;;10.83;;
23258;SDS011;11798;51.528;7.240;2023-04-06T02:02:28;15.60;;;10.57;;
23258;SDS011;11798;51.528;7.240;2023-04-06T02:04:54;14.40;;;9.93;;
23258;SDS011;11798;51.528;7.240;2023-04-06T02:07:20;21.23;;;11.17;;
23258;SDS011;11798;51.528;7.240;2023-04-06T02:09:46;15.63;;;10.60;;
23258;SDS011;11798;51.528;7.240;2023-04-06T02:12:12;14.00;;;11.03;;
23258;SDS011;11798;51.528;7.240;2023-04-06T02:14:37;16.17;;;9.93;;
23258;SDS011;11798;51.528;7.240;2023-04-06T02:17:03;18.10;;;10.07;;
23258;SDS011;11798;51.528;7.240;2023-04-06T02:19:28;15.77;;;10.60;;
23258;SDS011;11798;51.528;7.240;2023-04-06T02:21:54;14.47;;;10.57;;
23258;SDS011;11798;51.528;7.240;2023-04-06T02:24:20;19.33;;;10.33;;
23258;SDS011;11798;51.528;7.240;2023-04-06T02:26:46;14.97;;;10.43;;
23258;SDS011;11798;51.528;7.240;2023-04-06T02:29:11;18.77;;;11.40;;
23258;SDS011;11798;51.528;7.240;2023-04-06T02:31:37;16.83;;;9.53;;
23258;SDS011;11798;51.528;7.240;2023-04-06T02:34:02;17.43;;;11.53;;
23258;SDS011;11798;51.528;7.240;2023-04-06T02:36:28;17.73;;;10.60;;
23258;SDS011;11798;51.528;7.240;2023-04-06T02:38:54;13.57;;;10.13;;
23258;SDS011;11798;51.528;7.240;2023-04-06T02:41:20;18.00;;;11.07;;
23258;SDS011;11798;51.528;7.240;2023-04-06T02:43:46;17.30;;;11.10;;
23258;SDS011;11798;51.528;7.240;2023-04-06T02:46:11;17.43;;;10.23;;
23258;SDS011;11798;51.528;7.240;2023-04-06T02:48:37;16.90;;;10.70;;
23258;SDS011;11798;51.528;7.240;2023-04-06T02:51:02;18.63;;;11.50;;
23258;SDS011;11798;51.528;7.240;2023-04-06T02:53:28;17.47;;;11.10;;
23258;SDS011;11798;51.528;7.240;2023-04-06T02:55:54;17.10;;;10.40;;
23258;SDS011;11798;51.528;7.240;2023-04-06T02:58:20;17.17;;;10.80;;
23258;SDS011;11798;51.528;7.240;2023-04-06T03:00:46;15.57;;;9.83;;
23258;SDS011;11798;51.528;7.240;2023-04-06T03:03:12;16.13;;;11.23;;
23258;SDS011;11798;51.528;7.240;2023-04-06T03:05:37;17.23;;;11.30;;
23258;SDS011;11798;51.528;7.240;2023-04-06T03:08:03;19.40;;;11.60;;
23258;SDS011;11798;51.528;7.240;2023-04-06T03:10:29;16.07;;;11.17;;
23258;SDS011;11798;51.528;7.240;2023-04-06T03:12:54;16.37;;;10.60;;
23258;SDS011;11798;51.528;7.240;2023-04-06T03:15:20;16.73;;;10.27;;
23258;SDS011;11798;51.528;7.240;2023-04-06T03:17:46;18.60;;;11.60;;
23258;SDS011;11798;51.528;7.240;2023-04-06T03:20:11;19.50;;;11.17;;
23258;SDS011;11798;51.528;7.240;2023-04-06T03:22:37;15.60;;;10.80;;
23258;SDS011;11798;51.528;7.240;2023-04-06T03:25:03;13.20;;;10.57;;
23258;SDS011;11798;51.528;7.240;2023-04-06T03:27:29;17.87;;;11.03;;
23258;SDS011;11798;51.528;7.240;2023-04-06T03:29:54;20.23;;;11.33;;
23258;SDS011;11798;51.528;7.240;2023-04-06T03:32:20;16.33;;;11.93;;
23258;SDS011;11798;51.528;7.240;2023-04-06T03:34:45;18.80;;;11.83;;
23258;SDS011;11798;51.528;7.240;2023-04-06T03:37:11;17.00;;;11.10;;
23258;SDS011;11798;51.528;7.240;2023-04-06T03:39:37;18.30;;;10.97;;
23258;SDS011;11798;51.528;7.240;2023-04-06T03:42:02;19.13;;;11.73;;
23258;SDS011;11798;51.528;7.240;2023-04-06T03:44:28;18.23;;;11.50;;
23258;SDS011;11798;51.528;7.240;2023-04-06T03:46:54;15.17;;;10.73;;
23258;SDS011;11798;51.528;7.240;2023-04-06T03:49:19;19.57;;;11.67;;
23258;SDS011;11798;51.528;7.240;2023-04-06T03:51:45;16.50;;;10.83;;
23258;SDS011;11798;51.528;7.240;2023-04-06T03:54:11;17.83;;;10.57;;
23258;SDS011;11798;51.528;7.240;2023-04-06T03:56:36;15.40;;;10.63;;
23258;SDS011;11798;51.528;7.240;2023-04-06T03:59:02;17.17;;;10.67;;
23258;SDS011;11798;51.528;7.240;2023-04-06T04:01:27;17.90;;;10.63;;
23258;SDS011;11798;51.528;7.240;2023-04-06T04:03:53;17.40;;;10.97;;
23258;SDS011;11798;51.528;7.240;2023-04-06T04:06:19;16.13;;;11.13;;
23258;SDS011;11798;51.528;7.240;2023-04-06T04:08:44;15.57;;;9.60;;
23258;SDS011;11798;51.528;7.240;2023-04-06T04:11:10;17.40;;;10.13;;
23258;SDS011;11798;51.528;7.240;2023-04-06T04:13:36;15.50;;;10.27;;
23258;SDS011;11798;51.528;7.240;2023-04-06T04:16:01;16.07;;;10.30;;
23258;SDS011;11798;51.528;7.240;2023-04-06T04:18:27;15.30;;;10.47;;
23258;SDS011;11798;51.528;7.240;2023-04-06T04:20:52;18.17;;;10.80;;
23258;SDS011;11798;51.528;7.240;2023-04-06T04:23:18;16.77;;;9.73;;
23258;SDS011;11798;51.528;7.240;2023-04-06T04:25:44;15.40;;;9.47;;
23258;SDS011;11798;51.528;7.240;2023-04-06T04:28:10;14.03;;;9.47;;
23258;SDS011;11798;51.528;7.240;2023-04-06T04:30:35;14.03;;;10.10;;
23258;SDS011;11798;51.528;7.240;2023-04-06T04:33:01;17.07;;;9.67;;
23258;SDS011;11798;51.528;7.240;2023-04-06T04:35:27;17.20;;;9.70;;
23258;SDS011;11798;51.528;7.240;2023-04-06T04:37:52;15.20;;;9.10;;
23258;SDS011;11798;51.528;7.240;2023-04-06T04:40:18;15.63;;;8.87;;
23258;SDS011;11798;51.528;7.240;2023-04-06T04:42:43;16.40;;;9.57;;
23258;SDS011;11798;51.528;7.240;2023-04-06T04:45:10;15.87;;;11.13;;
23258;SDS011;11798;51.528;7.240;2023-04-06T04:47:36;15.33;;;9.87;;
23258;SDS011;11798;51.528;7.240;2023-04-06T04:50:02;13.73;;;9.13;;
23258;SDS011;11798;51.528;7.240;2023-04-06T04:52:27;12.33;;;8.77;;
23258;SDS011;11798;51.528;7.240;2023-04-06T04:54:53;14.20;;;9.97;;
23258;SDS011;11798;51.528;7.240;2023-04-06T04:57:18;15.17;;;9.87;;
23258;SDS011;11798;51.528;7.240;2023-04-06T04:59:44;14.17;;;9.60;;
23258;SDS011;11798;51.528;7.240;2023-04-06T05:02:10;15.13;;;9.10;;
23258;SDS011;11798;51.528;7.240;2023-04-06T05:04:36;15.20;;;9.07;;
23258;SDS011;11798;51.528;7.240;2023-04-06T05:07:08;17.27;;;10.80;;
23258;SDS011;11798;51.528;7.240;2023-04-06T05:09:34;14.63;;;8.30;;
23258;SDS011;11798;51.528;7.240;2023-04-06T05:12:00;14.70;;;9.23;;
23258;SDS011;11798;51.528;7.240;2023-04-06T05:14:26;14.90;;;9.37;;
23258;SDS011;11798;51.528;7.240;2023-04-06T05:16:52;14.97;;;8.37;;
23258;SDS011;11798;51.528;7.240;2023-04-06T05:19:19;13.47;;;8.70;;
23258;SDS011;11798;51.528;7.240;2023-04-06T05:21:45;12.07;;;8.40;;
23258;SDS011;11798;51.528;7.240;2023-04-06T05:24:10;14.33;;;9.20;;
23258;SDS011;11798;51.528;7.240;2023-04-06T05:26:36;13.70;;;8.40;;
23258;SDS011;11798;51.528;7.240;2023-04-06T05:29:02;11.90;;;8.23;;
23258;SDS011;11798;51.528;7.240;2023-04-06T05:31:28;11.33;;;8.57;;
23258;SDS011;11798;51.528;7.240;2023-04-06T05:33:54;14.43;;;8.50;;
23258;SDS011;11798;51.528;7.240;2023-04-06T05:36:20;14.57;;;8.00;;
23258;SDS011;11798;51.528;7.240;2023-04-06T05:38:46;13.23;;;8.47;;
23258;SDS011;11798;51.528;7.240;2023-04-06T05:41:12;13.80;;;8.27;;
23258;SDS011;11798;51.528;7.240;2023-04-06T05:43:37;12.73;;;8.10;;
23258;SDS011;11798;51.528;7.240;2023-04-06T05:46:03;15.13;;;8.33;;
23258;SDS011;11798;51.528;7.240;2023-04-06T05:48:29;12.13;;;7.43;;
23258;SDS011;11798;51.528;7.240;2023-04-06T05:50:54;13.67;;;8.23;;
23258;SDS011;11798;51.528;7.240;2023-04-06T05:53:20;12.33;;;8.03;;
23258;SDS011;11798;51.528;7.240;2023-04-06T05:55:46;17.73;;;7.70;;
23258;SDS011;11798;51.528;7.240;2023-04-06T05:58:12;14.37;;;7.90;;
23258;SDS011;11798;51.528;7.240;2023-04-06T06:00:38;14.23;;;8.87;;
23258;SDS011;11798;51.528;7.240;2023-04-06T06:03:03;12.00;;;7.90;;
23258;SDS011;11798;51.528;7.240;2023-04-06T06:05:30;14.80;;;7.87;;
23258;SDS011;11798;51.528;7.240;2023-04-06T06:07:56;13.03;;;8.23;;
23258;SDS011;11798;51.528;7.240;2023-04-06T06:10:22;12.47;;;8.07;;
23258;SDS011;11798;51.528;7.240;2023-04-06T06:12:48;11.87;;;7.83;;
23258;SDS011;11798;51.528;7.240;2023-04-06T06:15:13;11.03;;;7.90;;
23258;SDS011;11798;51.528;7.240;2023-04-06T06:17:39;12.70;;;8.10;;
23258;SDS011;11798;51.528;7.240;2023-04-06T06:20:06;12.50;;;7.97;;
23258;SDS011;11798;51.528;7.240;2023-04-06T06:22:32;12.37;;;8.10;;
23258;SDS011;11798;51.528;7.240;2023-04-06T06:24:58;11.90;;;7.97;;
23258;SDS011;11798;51.528;7.240;2023-04-06T06:27:23;12.97;;;8.67;;
23258;SDS011;11798;51.528;7.240;2023-04-06T06:29:49;14.40;;;7.93;;
23258;SDS011;11798;51.528;7.240;2023-04-06T06:32:15;11.90;;;7.80;;
23258;SDS011;11798;51.528;7.240;2023-04-06T06:34:40;10.33;;;7.60;;
23258;SDS011;11798;51.528;7.240;2023-04-06T06:37:06;15.30;;;8.43;;
23258;SDS011;11798;51.528;7.240;2023-04-06T06:39:31;15.00;;;8.47;;
23258;SDS011;11798;51.528;7.240;2023-04-06T06:41:57;13.33;;;7.50;;
23258;SDS011;11798;51.528;7.240;2023-04-06T06:44:25;11.60;;;8.23;;
23258;SDS011;11798;51.528;7.240;2023-04-06T06:46:51;11.23;;;7.40;;
23258;SDS011;11798;51.528;7.240;2023-04-06T06:49:17;15.03;;;8.20;;
23258;SDS011;11798;51.528;7.240;2023-04-06T06:51:43;10.60;;;7.33;;
23258;SDS011;11798;51.528;7.240;2023-04-06T06:54:09;12.13;;;8.53;;
23258;SDS011;11798;51.528;7.240;2023-04-06T06:56:35;11.40;;;7.20;;
23258;SDS011;11798;51.528;7.240;2023-04-06T06:59:03;12.27;;;7.77;;
23258;SDS011;11798;51.528;7.240;2023-04-06T07:01:30;11.30;;;7.57;;
23258;SDS011;11798;51.528;7.240;2023-04-06T07:03:57;13.40;;;7.73;;
23258;SDS011;11798;51.528;7.240;2023-04-06T07:06:23;12.80;;;8.70;;
23258;SDS011;11798;51.528;7.240;2023-04-06T07:08:48;18.43;;;8.50;;
23258;SDS011;11798;51.528;7.240;2023-04-06T07:11:14;14.23;;;8.27;;
23258;SDS011;11798;51.528;7.240;2023-04-06T07:13:39;17.97;;;9.47;;
23258;SDS011;11798;51.528;7.240;2023-04-06T07:16:05;14.07;;;8.43;;
23258;SDS011;11798;51.528;7.240;2023-04-06T07:18:31;12.93;;;8.60;;
23258;SDS011;11798;51.528;7.240;2023-04-06T07:20:56;14.43;;;8.33;;
23258;SDS011;11798;51.528;7.240;2023-04-06T07:23:22;12.80;;;8.10;;
23258;SDS011;11798;51.528;7.240;2023-04-06T07:25:48;13.47;;;8.23;;
23258;SDS011;11798;51.528;7.240;2023-04-06T07:28:15;11.97;;;7.83;;
23258;SDS011;11798;51.528;7.240;2023-04-06T07:30:41;13.87;;;9.03;;
23258;SDS011;11798;51.528;7.240;2023-04-06T07:33:07;13.90;;;8.47;;
23258;SDS011;11798;51.528;7.240;2023-04-06T07:35:32;13.13;;;8.77;;
23258;SDS011;11798;51.528;7.240;2023-04-06T07:37:59;14.53;;;8.37;;
23258;SDS011;11798;51.528;7.240;2023-04-06T07:40:25;16.93;;;8.40;;
23258;SDS011;11798;51.528;7.240;2023-04-06T07:42:51;13.07;;;8.57;;
23258;SDS011;11798;51.528;7.240;2023-04-06T07:45:17;15.27;;;8.63;;
23258;SDS011;11798;51.528;7.240;2023-04-06T07:47:43;12.07;;;8.70;;
23258;SDS011;11798;51.528;7.240;2023-04-06T07:50:09;12.93;;;8.37;;
23258;SDS011;11798;51.528;7.240;2023-04-06T07:52:35;15.57;;;8.50;;
23258;SDS011;11798;51.528;7.240;2023-04-06T07:55:01;14.33;;;9.87;;
23258;SDS011;11798;51.528;7.240;2023-04-06T07:57:26;15.37;;;9.20;;
23258;SDS011;11798;51.528;7.240;2023-04-06T07:59:52;15.53;;;8.23;;
23258;SDS011;11798;51.528;7.240;2023-04-06T08:02:18;15.37;;;8.87;;
23258;SDS011;11798;51.528;7.240;2023-04-06T08:04:44;14.57;;;9.40;;
23258;SDS011;11798;51.528;7.240;2023-04-06T08:07:12;12.33;;;8.20;;
23258;SDS011;11798;51.528;7.240;2023-04-06T08:09:38;18.30;;;9.27;;
23258;SDS011;11798;51.528;7.240;2023-04-06T08:12:04;14.50;;;8.90;;
23258;SDS011;11798;51.528;7.240;2023-04-06T08:14:30;14.77;;;9.10;;
23258;SDS011;11798;51.528;7.240;2023-04-06T08:16:56;17.37;;;10.00;;
23258;SDS011;11798;51.528;7.240;2023-04-06T08:19:21;16.93;;;9.57;;
23258;SDS011;11798;51.528;7.240;2023-04-06T08:21:47;15.47;;;9.50;;
23258;SDS011;11798;51.528;7.240;2023-04-06T08:24:13;14.53;;;9.40;;
23258;SDS011;11798;51.528;7.240;2023-04-06T08:26:39;13.30;;;9.17;;
23258;SDS011;11798;51.528;7.240;2023-04-06T08:29:05;17.33;;;9.73;;
23258;SDS011;11798;51.528;7.240;2023-04-06T08:31:32;15.30;;;8.87;;
23258;SDS011;11798;51.528;7.240;2023-04-06T08:33:59;13.33;;;9.13;;
23258;SDS011;11798;51.528;7.240;2023-04-06T08:36:25;12.03;;;9.10;;
23258;SDS011;11798;51.528;7.240;2023-04-06T08:38:51;13.17;;;9.23;;
23258;SDS011;11798;51.528;7.240;2023-04-06T08:41:17;14.70;;;9.27;;
23258;SDS011;11798;51.528;7.240;2023-04-06T08:43:50;15.37;;;8.73;;
23258;SDS011;11798;51.528;7.240;2023-04-06T08:46:22;14.30;;;10.17;;
23258;SDS011;11798;51.528;7.240;2023-04-06T08:48:54;16.93;;;10.13;;
23258;SDS011;11798;51.528;7.240;2023-04-06T08:51:23;14.67;;;9.50;;
23258;SDS011;11798;51.528;7.240;2023-04-06T08:53:53;15.77;;;9.90;;
23258;SDS011;11798;51.528;7.240;2023-04-06T08:56:22;15.73;;;10.10;;
23258;SDS011;11798;51.528;7.240;2023-04-06T08:58:52;16.10;;;10.13;;
23258;SDS011;11798;51.528;7.240;2023-04-06T09:01:22;14.47;;;10.40;;
23258;SDS011;11798;51.528;7.240;2023-04-06T09:03:50;16.50;;;10.43;;
23258;SDS011;11798;51.528;7.240;2023-04-06T09:06:18;19.23;;;11.90;;
23258;SDS011;11798;51.528;7.240;2023-04-06T09:08:44;19.47;;;12.77;;
23258;SDS011;11798;51.528;7.240;2023-04-06T09:11:10;21.23;;;13.50;;
23258;SDS011;11798;51.528;7.240;2023-04-06T09:13:46;20.57;;;12.77;;
23258;SDS011;11798;51.528;7.240;2023-04-06T09:16:22;22.73;;;14.30;;
23258;SDS011;11798;51.528;7.240;2023-04-06T09:18:48;18.23;;;12.83;;
23258;SDS011;11798;51.528;7.240;2023-04-06T09:21:16;18.60;;;12.63;;
23258;SDS011;11798;51.528;7.240;2023-04-06T09:23:43;16.70;;;11.57;;
23258;SDS011;11798;51.528;7.240;2023-04-06T09:26:10;16.97;;;12.13;;
23258;SDS011;11798;51.528;7.240;2023-04-06T09:28:44;17.10;;;12.37;;
23258;SDS011;11798;51.528;7.240;2023-04-06T09:31:12;18.60;;;12.10;;
23258;SDS011;11798;51.528;7.240;2023-04-06T09:33:40;19.07;;;13.10;;
23258;SDS011;11798;51.528;7.240;2023-04-06T09:36:09;15.73;;;11.70;;
23258;SDS011;11798;51.528;7.240;2023-04-06T09:38:38;17.20;;;11.97;;
23258;SDS011;11798;51.528;7.240;2023-04-06T09:41:25;17.30;;;11.40;;
23258;SDS011;11798;51.528;7.240;2023-04-06T09:44:01;17.13;;;11.47;;
23258;SDS011;11798;51.528;7.240;2023-04-06T09:46:33;16.27;;;11.50;;
23258;SDS011;11798;51.528;7.240;2023-04-06T09:49:04;23.37;;;11.80;;
23258;SDS011;11798;51.528;7.240;2023-04-06T09:51:31;17.87;;;12.07;;
23258;SDS011;11798;51.528;7.240;2023-04-06T09:54:20;15.60;;;11.73;;
23258;SDS011;11798;51.528;7.240;2023-04-06T09:56:47;17.13;;;11.30;;
23258;SDS011;11798;51.528;7.240;2023-04-06T10:02:32;21.30;;;13.80;;
23258;SDS011;11798;51.528;7.240;2023-04-06T10:07:52;21.37;;;13.40;;
23258;SDS011;11798;51.528;7.240;2023-04-06T10:10:20;25.07;;;14.80;;
23258;SDS011;11798;51.528;7.240;2023-04-06T10:12:47;21.67;;;13.43;;
23258;SDS011;11798;51.528;7.240;2023-04-06T10:15:14;21.90;;;13.23;;
23258;SDS011;11798;51.528;7.240;2023-04-06T10:17:40;24.43;;;14.07;;
23258;SDS011;11798;51.528;7.240;2023-04-06T10:20:16;19.63;;;13.67;;
23258;SDS011;11798;51.528;7.240;2023-04-06T10:25:51;19.60;;;13.73;;
23258;SDS011;11798;51.528;7.240;2023-04-06T10:28:18;20.93;;;13.77;;
23258;SDS011;11798;51.528;7.240;2023-04-06T10:30:44;22.47;;;14.70;;
23258;SDS011;11798;51.528;7.240;2023-04-06T10:35:39;21.83;;;14.43;;
23258;SDS011;11798;51.528;7.240;2023-04-06T10:38:05;20.33;;;14.17;;
23258;SDS011;11798;51.528;7.240;2023-04-06T10:40:31;25.03;;;14.83;;
23258;SDS011;11798;51.528;7.240;2023-04-06T10:43:06;24.67;;;15.67;;
23258;SDS011;11798;51.528;7.240;2023-04-06T10:45:36;22.17;;;14.73;;
23258;SDS011;11798;51.528;7.240;2023-04-06T10:48:13;20.87;;;14.57;;
23258;SDS011;11798;51.528;7.240;2023-04-06T10:50:40;17.80;;;14.00;;
23258;SDS011;11798;51.528;7.240;2023-04-06T10:53:07;20.10;;;13.90;;
23258;SDS011;11798;51.528;7.240;2023-04-06T10:55:33;17.63;;;12.67;;
23258;SDS011;11798;51.528;7.240;2023-04-06T10:57:59;17.17;;;12.03;;
23258;SDS011;11798;51.528;7.240;2023-04-06T11:00:25;21.73;;;14.50;;
23258;SDS011;11798;51.528;7.240;2023-04-06T11:02:51;20.27;;;13.57;;
23258;SDS011;11798;51.528;7.240;2023-04-06T11:05:23;17.27;;;12.73;;
23258;SDS011;11798;51.528;7.240;2023-04-06T11:07:49;17.97;;;13.13;;
23258;SDS011;11798;51.528;7.240;2023-04-06T11:10:20;19.83;;;13.30;;
23258;SDS011;11798;51.528;7.240;2023-04-06T11:12:52;20.23;;;13.30;;
23258;SDS011;11798;51.528;7.240;2023-04-06T11:15:21;20.93;;;14.57;;
23258;SDS011;11798;51.528;7.240;2023-04-06T11:17:47;23.87;;;17.13;;
23258;SDS011;11798;51.528;7.240;2023-04-06T11:20:14;24.60;;;16.23;;
23258;SDS011;11798;51.528;7.240;2023-04-06T11:22:50;26.57;;;16.63;;
23258;SDS011;11798;51.528;7.240;2023-04-06T11:25:16;25.17;;;17.07;;
23258;SDS011;11798;51.528;7.240;2023-04-06T11:27:43;23.13;;;16.27;;
23258;SDS011;11798;51.528;7.240;2023-04-06T11:30:10;25.13;;;17.40;;
23258;SDS011;11798;51.528;7.240;2023-04-06T11:32:43;21.70;;;16.87;;
23258;SDS011;11798;51.528;7.240;2023-04-06T11:35:20;28.53;;;20.23;;
23258;SDS011;11798;51.528;7.240;2023-04-06T11:37:48;26.83;;;18.83;;
23258;SDS011;11798;51.528;7.240;2023-04-06T11:40:23;30.10;;;21.37;;
23258;SDS011;11798;51.528;7.240;2023-04-06T11:42:53;28.33;;;20.50;;
23258;SDS011;11798;51.528;7.240;2023-04-06T11:45:20;27.17;;;19.83;;
23258;SDS011;11798;51.528;7.240;2023-04-06T11:47:54;28.27;;;20.83;;
23258;SDS011;11798;51.528;7.240;2023-04-06T11:50:22;27.27;;;20.33;;
23258;SDS011;11798;51.528;7.240;2023-04-06T11:52:47;28.37;;;19.93;;
23258;SDS011;11798;51.528;7.240;2023-04-06T11:55:25;27.27;;;19.30;;
23258;SDS011;11798;51.528;7.240;2023-04-06T11:57:50;29.33;;;20.13;;
23258;SDS011;11798;51.528;7.240;2023-04-06T12:00:16;26.27;;;19.33;;
23258;SDS011;11798;51.528;7.240;2023-04-06T12:02:45;23.43;;;17.50;;
23258;SDS011;11798;51.528;7.240;2023-04-06T12:05:12;29.10;;;18.33;;
23258;SDS011;11798;51.528;7.240;2023-04-06T12:07:38;28.57;;;19.03;;
23258;SDS011;11798;51.528;7.240;2023-04-06T12:10:03;29.27;;;19.27;;
23258;SDS011;11798;51.528;7.240;2023-04-06T12:12:30;23.30;;;16.17;;
23258;SDS011;11798;51.528;7.240;2023-04-06T12:14:56;21.73;;;14.70;;
23258;SDS011;11798;51.528;7.240;2023-04-06T12:17:22;22.40;;;14.23;;
23258;SDS011;11798;51.528;7.240;2023-04-06T12:19:48;25.20;;;16.70;;
23258;SDS011;11798;51.528;7.240;2023-04-06T12:22:13;25.03;;;16.40;;
23258;SDS011;11798;51.528;7.240;2023-04-06T12:24:40;23.33;;;16.00;;
23258;SDS011;11798;51.528;7.240;2023-04-06T12:27:06;25.47;;;17.30;;
23258;SDS011;11798;51.528;7.240;2023-04-06T12:29:31;19.83;;;14.10;;
23258;SDS011;11798;51.528;7.240;2023-04-06T12:31:57;19.93;;;14.73;;
23258;SDS011;11798;51.528;7.240;2023-04-06T12:34:23;21.30;;;15.40;;
23258;SDS011;11798;51.528;7.240;2023-04-06T12:36:48;19.97;;;14.80;;
23258;SDS011;11798;51.528;7.240;2023-04-06T12:39:15;21.87;;;15.90;;
23258;SDS011;11798;51.528;7.240;2023-04-06T12:41:41;22.33;;;16.10;;
23258;SDS011;11798;51.528;7.240;2023-04-06T12:44:07;20.07;;;14.93;;
23258;SDS011;11798;51.528;7.240;2023-04-06T12:46:33;22.10;;;15.00;;
23258;SDS011;11798;51.528;7.240;2023-04-06T12:48:58;22.47;;;14.60;;
23258;SDS011;11798;51.528;7.240;2023-04-06T12:51:27;20.87;;;14.67;;
23258;SDS011;11798;51.528;7.240;2023-04-06T12:53:53;20.07;;;14.90;;
23258;SDS011;11798;51.528;7.240;2023-04-06T12:56:19;24.13;;;15.27;;
23258;SDS011;11798;51.528;7.240;2023-04-06T12:58:50;22.73;;;14.90;;
23258;SDS011;11798;51.528;7.240;2023-04-06T13:01:17;23.80;;;14.73;;
23258;SDS011;11798;51.528;7.240;2023-04-06T13:03:43;21.40;;;15.27;;
23258;SDS011;11798;51.528;7.240;2023-04-06T13:06:09;21.10;;;14.80;;
23258;SDS011;11798;51.528;7.240;2023-04-06T13:08:35;21.07;;;15.50;;
23258;SDS011;11798;51.528;7.240;2023-04-06T13:11:03;22.40;;;15.00;;
23258;SDS011;11798;51.528;7.240;2023-04-06T13:13:30;25.30;;;16.20;;
23258;SDS011;11798;51.528;7.240;2023-04-06T13:15:59;24.63;;;15.43;;
23258;SDS011;11798;51.528;7.240;2023-04-06T13:18:27;25.43;;;16.03;;
23258;SDS011;11798;51.528;7.240;2023-04-06T13:20:54;23.40;;;15.93;;
23258;SDS011;11798;51.528;7.240;2023-04-06T13:23:21;23.27;;;16.30;;
23258;SDS011;11798;51.528;7.240;2023-04-06T13:25:47;25.20;;;16.13;;
23258;SDS011;11798;51.528;7.240;2023-04-06T13:28:13;23.70;;;16.30;;
23258;SDS011;11798;51.528;7.240;2023-04-06T13:30:38;24.43;;;16.77;;
23258;SDS011;11798;51.528;7.240;2023-04-06T13:33:04;22.87;;;15.37;;
23258;SDS011;11798;51.528;7.240;2023-04-06T13:35:34;24.30;;;15.70;;
23258;SDS011;11798;51.528;7.240;2023-04-06T13:38:00;27.13;;;15.77;;
23258;SDS011;11798;51.528;7.240;2023-04-06T13:40:26;21.37;;;15.40;;
23258;SDS011;11798;51.528;7.240;2023-04-06T13:42:51;22.03;;;14.77;;
23258;SDS011;11798;51.528;7.240;2023-04-06T13:45:17;21.00;;;13.93;;
23258;SDS011;11798;51.528;7.240;2023-04-06T13:47:43;21.23;;;14.20;;
23258;SDS011;11798;51.528;7.240;2023-04-06T13:50:08;21.43;;;15.07;;
23258;SDS011;11798;51.528;7.240;2023-04-06T13:52:34;21.87;;;15.40;;
23258;SDS011;11798;51.528;7.240;2023-04-06T13:55:01;22.07;;;14.97;;
23258;SDS011;11798;51.528;7.240;2023-04-06T13:57:27;19.97;;;13.87;;
23258;SDS011;11798;51.528;7.240;2023-04-06T13:59:54;20.17;;;14.57;;
23258;SDS011;11798;51.528;7.240;2023-04-06T14:02:20;20.47;;;14.57;;
23258;SDS011;11798;51.528;7.240;2023-04-06T14:04:51;21.63;;;14.80;;
23258;SDS011;11798;51.528;7.240;2023-04-06T14:07:17;23.07;;;14.60;;
23258;SDS011;11798;51.528;7.240;2023-04-06T14:09:42;19.50;;;14.33;;
23258;SDS011;11798;51.528;7.240;2023-04-06T14:12:08;20.67;;;14.17;;
23258;SDS011;11798;51.528;7.240;2023-04-06T14:14:34;18.47;;;14.17;;
23258;SDS011;11798;51.528;7.240;2023-04-06T14:16:59;18.37;;;13.73;;
23258;SDS011;11798;51.528;7.240;2023-04-06T14:19:25;20.93;;;13.57;;
23258;SDS011;11798;51.528;7.240;2023-04-06T14:21:51;18.57;;;13.73;;
23258;SDS011;11798;51.528;7.240;2023-04-06T14:24:17;18.23;;;12.70;;
23258;SDS011;11798;51.528;7.240;2023-04-06T14:26:43;18.83;;;12.70;;
23258;SDS011;11798;51.528;7.240;2023-04-06T14:29:09;19.57;;;12.63;;
23258;SDS011;11798;51.528;7.240;2023-04-06T14:31:35;15.97;;;11.57;;
23258;SDS011;11798;51.528;7.240;2023-04-06T14:34:02;14.63;;;11.20;;
23258;SDS011;11798;51.528;7.240;2023-04-06T14:36:29;20.63;;;13.00;;
23258;SDS011;11798;51.528;7.240;2023-04-06T14:39:01;19.57;;;11.80;;
23258;SDS011;11798;51.528;7.240;2023-04-06T14:41:31;20.70;;;13.43;;
23258;SDS011;11798;51.528;7.240;2023-04-06T14:43:57;18.80;;;13.13;;
23258;SDS011;11798;51.528;7.240;2023-04-06T14:46:23;20.13;;;13.43;;
23258;SDS011;11798;51.528;7.240;2023-04-06T14:48:49;18.97;;;13.17;;
23258;SDS011;11798;51.528;7.240;2023-04-06T14:51:15;18.43;;;13.47;;
23258;SDS011;11798;51.528;7.240;2023-04-06T14:53:41;22.23;;;15.27;;
23258;SDS011;11798;51.528;7.240;2023-04-06T14:56:07;22.50;;;14.60;;
23258;SDS011;11798;51.528;7.240;2023-04-06T14:58:33;22.33;;;14.47;;
23258;SDS011;11798;51.528;7.240;2023-04-06T15:00:59;22.47;;;14.57;;
23258;SDS011;11798;51.528;7.240;2023-04-06T15:03:28;21.37;;;13.67;;
23258;SDS011;11798;51.528;7.240;2023-04-06T15:05:55;21.63;;;14.47;;
23258;SDS011;11798;51.528;7.240;2023-04-06T15:08:22;19.17;;;13.50;;
23258;SDS011;11798;51.528;7.240;2023-04-06T15:10:48;18.03;;;12.57;;
23258;SDS011;11798;51.528;7.240;2023-04-06T15:13:15;17.40;;;12.63;;
23258;SDS011;11798;51.528;7.240;2023-04-06T15:15:41;20.17;;;13.27;;
23258;SDS011;11798;51.528;7.240;2023-04-06T15:18:07;22.27;;;13.40;;
23258;SDS011;11798;51.528;7.240;2023-04-06T15:20:34;15.77;;;11.67;;
23258;SDS011;11798;51.528;7.240;2023-04-06T15:23:01;17.43;;;11.97;;
23258;SDS011;11798;51.528;7.240;2023-04-06T15:25:27;19.03;;;11.83;;
23258;SDS011;11798;51.528;7.240;2023-04-06T15:27:56;15.47;;;11.03;;
23258;SDS011;11798;51.528;7.240;2023-04-06T15:30:22;14.40;;;10.70;;
23258;SDS011;11798;51.528;7.240;2023-04-06T15:33:06;14.60;;;10.47;;
23258;SDS011;11798;51.528;7.240;2023-04-06T15:35:33;17.90;;;11.00;;
23258;SDS011;11798;51.528;7.240;2023-04-06T15:38:04;15.63;;;9.97;;
23258;SDS011;11798;51.528;7.240;2023-04-06T15:40:30;13.07;;;10.07;;
23258;SDS011;11798;51.528;7.240;2023-04-06T15:42:56;16.57;;;10.43;;
23258;SDS011;11798;51.528;7.240;2023-04-06T15:45:21;14.33;;;10.03;;
23258;SDS011;11798;51.528;7.240;2023-04-06T15:47:47;15.50;;;10.73;;
23258;SDS011;11798;51.528;7.240;2023-04-06T15:50:13;13.27;;;9.57;;
23258;SDS011;11798;51.528;7.240;2023-04-06T15:52:38;15.73;;;10.83;;
23258;SDS011;11798;51.528;7.240;2023-04-06T15:55:05;14.70;;;10.27;;
23258;SDS011;11798;51.528;7.240;2023-04-06T15:57:32;11.70;;;9.47;;
23258;SDS011;11798;51.528;7.240;2023-04-06T15:59:58;14.03;;;9.33;;